METAR AND TAF INFORMATION
METAR FOR LIMZ
ADDS - METARS form results

(0446 UTC 20 May 2022)
Data provider http://aviationweather.gov/metar/data/
 
METAR text: LIMZ 200420Z AUTO 24004KT 9999 NCD 15/14 Q1027
Conditions at: LIMZ (LEVALDIGI , IT) observed 0420 UTC 20 May 2022
Temperature: 15.0°C (59°F)
Dewpoint: 14.0°C (57°F) [RH = 94%]
Pressure (altimeter): 30.32 inches Hg (1027.0 mb)
Winds: from the WSW (240 degrees) at 5 MPH (4 knots; 2.1 m/s)
Visibility: 6 or more miles (10+ km)
Ceiling: at least 12,000 feet AGL
Clouds: sky clear below 12,000 feet AGL
Weather: no significant weather observed at this time

METAR text: LIMZ 200350Z AUTO 23004KT 9999 NCD 15/14 Q1027
Conditions at: LIMZ (LEVALDIGI , IT) observed 0350 UTC 20 May 2022
Temperature: 15.0°C (59°F)
Dewpoint: 14.0°C (57°F) [RH = 94%]
Pressure (altimeter): 30.32 inches Hg (1027.0 mb)
Winds: from the SW (230 degrees) at 5 MPH (4 knots; 2.1 m/s)
Visibility: 6 or more miles (10+ km)
Ceiling: at least 12,000 feet AGL
Clouds: sky clear below 12,000 feet AGL
Weather: no significant weather observed at this time

Forecast for: LIMZ (LEVALDIGI , IT)
Text: TAF LIMZ 192300Z 2000/2024 VRB05KT 9999 FEW060
Forecast period: 0000 UTC 20 May 2022 to 0000 UTC 21 May 2022
Forecast type: FROM: standard forecast or significant change
Winds: variable direction winds at 6 MPH (5 knots; 2.6 m/s)
Visibility: 6 or more miles (10+ km)
Ceiling: at least 12,000 feet AGL
Clouds: few clouds at 6000 feet AGL
Weather: no significant weather forecast for this period

 AIRPORT MAP

 RUNWAY INFORMATION
Runway 03 Runway length 6903 ft Runway width 148 ft
Runway elevation 1267 ft Runway displaced threshold 0 ft Runway heading 32
Runway 21 Runway length 6903 ft Runway width 148 ft
Runway elevation 1217 ft Runway displaced threshold 0 ft Runway heading 212

 AIRPORT FREQUENCIES
Type AFIS Name CUNEO INFO Frequency 119.55 MHZ

 AIRPORT NEAR NAVIGATION AIDS
Type NDB Name Levaldigi Frequency 371 KHZ